Kailua, HI (96734)

9:03 AM HST on August 27, 2016 (GMT -1000)
Kailua | | Change Station

Elev 20 ft 21.40 °N, 157.75 °W | Updated 33 seconds ago

Overcast
Overcast
83.7 °F
Feels Like 87 °F
N
2.7
Wind Variable Wind from NNE

Today
High -- | Low -- °F
--% Chance of Precip.
Yesterday
High -- | Low -- °F
Precip. -- in
Pressure 29.96 in
Visibility 10.0 miles
Clouds Few 2600 ft
Overcast 6500 ft
Heat Index 87 °F
Dew Point 68 °F
Humidity 60%
Rainfall 0.00 in
Snow Depth Not available.
6:13 AM 6:50 PM
Waning Crescent, 22% visible
METAR PHNG 271857Z 06006KT 10SM FEW026 OVC065 27/21 A2997 RMK AO2 SLP144 T02720206 $
Pressure 29.96 in
Visibility 10.0 miles
Clouds Few 2600 ft
Overcast 6500 ft
Heat Index 87 °F
Dew Point 68 °F
Humidity 60%
Rainfall 0.00 in
Snow Depth Not available.
6:13 AM 6:50 PM
Waning Crescent, 22% visible
METAR PHNG 271857Z 06006KT 10SM FEW026 OVC065 27/21 A2997 RMK AO2 SLP144 T02720206 $

10-Day Weather Forecast

Almanac

Astronomy

Aug. 27, 2016 Rise Set
Actual Time
Civil Twilight
Nautical Twilight
Astronomical Twilight
Moon
Length of Visible Light
Length of Day
Tomorrow will be .
, % of the Moon is Illuminated

Today's Extremes

State Highs State Lows

Community

WunderPhotos

Upload Photos

1,935,399 photos uploaded!

WunderBlog® & News

Nearby

Air Quality

  Air Quality AQ Index Pollutant
Not available.

Snow Depth

Station Depth Elevation

Earthquake Activity

City Distance Mag. Time & Date
Minimum magnitude displayed is 2.5.

Coastal Water Temperatures

Place Temperature

Stations

Nearby Weather Stations

Station Location Temp. Windchill Dew Point Humidity Wind Precip. Elev Updated Type
                   

Watches & Warnings

There are currently no watches in effect.